»·PEaware :: SWA268 KLAS-KSNA

SWA268 :: KLAS-KSNA

FLIGHT INFORMATION

Flight Status: Arrived
Operator:
Southwest Airlines
More flights by this operator :: More flights under this callsign
Pilot: Cody B. (17747)
Aircraft: BOEING 737-800
(B738)
More flights by this aircraft type
Origin: KLAS McCarran Intl
United States
Destination: KSNA John Wayne-Orange Co
United States
More flights between these airports :: More routes between these airports
Route: +BOACH8 WHIGG FEYLA DSNEE4
File this flight plan on PilotEdge
Remarks: PBN / A1B1C1D1S1S2 NAV / RNVD1E2A1 REG / N8310C RMK / SIMBRIEF
Altitude:
(Current/Filed)
28,000ft
Speed:
(Current/Filed)
463kts
Departed: 03-Jan-19 04:13 PM
Arrived: 03-Jan-19 04:58 PM
Distance/Time
Traveled:
196nm/0:45
Distance/Time
To Go:
Arrived

Flight Plot

Page will automatically refresh every two minutes.

Flight plan parsing failed; only flown route is shown


Map Options




Map Legend


Flown Route
Filed Route
Departure Airport
Arrival Airport
Navaid (VOR, NDB)
Fix

Horizontal Profiles

Position Reports

Time Latitude Longitude Heading Altitude Ground
Speed
03-Jan-19 14:57 36.080745 -115.147541 60 2189ft 0kts
03-Jan-19 14:58 36.080745 -115.147541 60 2189ft 0kts
03-Jan-19 14:59 36.080745 -115.147541 60 2189ft 0kts
03-Jan-19 15:00 36.080745 -115.147541 60 2189ft 0kts
03-Jan-19 15:01 36.080745 -115.147541 60 2189ft 0kts
03-Jan-19 15:02 36.080745 -115.147541 60 2189ft 0kts
03-Jan-19 15:03 36.080745 -115.147541 60 2189ft 0kts
03-Jan-19 15:04 36.080745 -115.147541 60 2189ft 0kts
03-Jan-19 15:05 36.080745 -115.147541 60 2189ft 0kts
03-Jan-19 15:06 36.080745 -115.147541 60 2189ft 0kts
03-Jan-19 15:07 36.080745 -115.147541 60 2189ft 0kts
03-Jan-19 15:08 36.080745 -115.147541 60 2189ft 0kts
03-Jan-19 15:09 36.080745 -115.147541 60 2189ft 0kts
03-Jan-19 15:10 36.080745 -115.147541 60 2189ft 0kts
03-Jan-19 15:11 36.080745 -115.147541 60 2189ft 0kts
03-Jan-19 15:12 36.080745 -115.147541 60 2189ft 0kts
03-Jan-19 15:13 36.080745 -115.147541 60 2189ft 0kts
03-Jan-19 15:14 36.080745 -115.147541 60 2189ft 0kts
03-Jan-19 15:15 36.080745 -115.147541 60 2189ft 0kts
03-Jan-19 15:16 36.080745 -115.147541 60 2189ft 0kts
03-Jan-19 15:17 36.080745 -115.147541 60 2189ft 0kts
03-Jan-19 15:18 36.080745 -115.147541 60 2189ft 0kts
03-Jan-19 15:19 36.080745 -115.147541 60 2189ft 0kts
03-Jan-19 15:20 36.080745 -115.147541 60 2189ft 0kts
03-Jan-19 15:21 36.080745 -115.147541 60 2189ft 0kts
03-Jan-19 15:22 36.080745 -115.147541 60 2189ft 0kts
03-Jan-19 15:23 36.080745 -115.147541 60 2189ft 0kts
03-Jan-19 15:24 36.080745 -115.147541 60 2189ft 0kts
03-Jan-19 15:25 36.080745 -115.147541 60 2189ft 0kts
03-Jan-19 15:26 36.080745 -115.147541 60 2189ft 0kts
03-Jan-19 15:27 36.080745 -115.147541 60 2189ft 0kts
03-Jan-19 15:28 36.080745 -115.147541 60 2189ft 0kts
03-Jan-19 15:29 36.080745 -115.147541 60 2189ft 0kts
03-Jan-19 15:30 36.080745 -115.147541 60 2189ft 0kts
03-Jan-19 15:31 36.080745 -115.147541 60 2189ft 0kts
03-Jan-19 15:32 36.080745 -115.147541 60 2189ft 0kts
03-Jan-19 15:33 36.080745 -115.147541 60 2189ft 0kts
03-Jan-19 15:34 36.080745 -115.147541 60 2189ft 0kts
03-Jan-19 15:35 36.080745 -115.147541 60 2189ft 0kts
03-Jan-19 15:36 36.080745 -115.147541 60 2189ft 0kts
03-Jan-19 15:37 36.080745 -115.147541 60 2189ft 0kts
03-Jan-19 15:38 36.080745 -115.147541 60 2189ft 0kts
03-Jan-19 15:39 36.080745 -115.147541 60 2189ft 0kts
03-Jan-19 15:40 36.080745 -115.147541 60 2189ft 0kts
03-Jan-19 15:41 36.080745 -115.147541 60 2189ft 0kts
03-Jan-19 15:42 36.080745 -115.147541 60 2189ft 0kts
03-Jan-19 15:43 36.080745 -115.147541 60 2189ft 0kts
03-Jan-19 15:44 36.080745 -115.147541 60 2189ft 0kts
03-Jan-19 15:45 36.080745 -115.147541 60 2189ft 0kts
03-Jan-19 15:46 36.080745 -115.147541 60 2189ft 0kts
03-Jan-19 15:47 36.080745 -115.147541 60 2189ft 0kts
03-Jan-19 15:48 36.080745 -115.147541 60 2189ft 0kts
03-Jan-19 15:49 36.080745 -115.147541 60 2189ft 0kts
03-Jan-19 15:50 36.080745 -115.147541 60 2189ft 0kts
03-Jan-19 15:51 36.080745 -115.147541 60 2189ft 0kts
03-Jan-19 15:52 36.080526 -115.148072 98 2189ft 2kts
03-Jan-19 15:53 36.080699 -115.148313 155 2189ft 0kts
03-Jan-19 15:54 36.080699 -115.148313 155 2189ft 0kts
03-Jan-19 15:55 36.080699 -115.148313 155 2189ft 0kts
03-Jan-19 15:56 36.080699 -115.148313 155 2189ft 0kts
03-Jan-19 15:57 36.080684 -115.148304 155 2189ft 0kts
03-Jan-19 15:58 36.078942 -115.147302 155 2189ft 0kts
03-Jan-19 15:59 36.078942 -115.147302 155 2189ft 0kts
03-Jan-19 16:00 36.078942 -115.147302 155 2189ft 0kts
03-Jan-19 16:01 36.078942 -115.147302 155 2189ft 0kts
03-Jan-19 16:02 36.078942 -115.147302 155 2189ft 0kts
03-Jan-19 16:03 36.077707 -115.146058 95 2189ft 11kts
03-Jan-19 16:04 36.077538 -115.141497 89 2189ft 15kts
03-Jan-19 16:05 36.077546 -115.135888 90 2189ft 18kts
03-Jan-19 16:06 36.077551 -115.129031 90 2189ft 21kts
03-Jan-19 16:07 36.077552 -115.122628 90 2189ft 11kts
03-Jan-19 16:08 36.077345 -115.121332 167 2189ft 0kts
03-Jan-19 16:09 36.077345 -115.121332 167 2189ft 0kts
03-Jan-19 16:10 36.077345 -115.121332 167 2189ft 0kts
03-Jan-19 16:11 36.076441 -115.122133 268 2189ft 11kts
03-Jan-19 16:12 36.076476 -115.135190 271 2189ft 112kts
03-Jan-19 16:13 36.076887 -115.193702 270 3911ft 191kts
03-Jan-19 16:14 36.059988 -115.263488 222 5786ft 257kts
03-Jan-19 16:15 35.988025 -115.292961 199 6999ft 278kts
03-Jan-19 16:16 35.909889 -115.309011 186 9450ft 294kts
03-Jan-19 16:17 35.824009 -115.312785 174 11735ft 333kts
03-Jan-19 16:18 35.730604 -115.301339 180 14511ft 347kts
03-Jan-19 16:19 35.642553 -115.345698 223 17100ft 354kts
03-Jan-19 16:20 35.574319 -115.434764 229 19457ft 364kts
03-Jan-19 16:21 35.505100 -115.527566 229 21574ft 376kts
03-Jan-19 16:22 35.433698 -115.623833 230 23227ft 389kts
03-Jan-19 16:23 35.364644 -115.716720 229 23248ft 386kts
03-Jan-19 16:24 35.292719 -115.813208 229 23238ft 387kts
03-Jan-19 16:25 35.220213 -115.910110 228 24174ft 389kts
03-Jan-19 16:26 35.144057 -116.006060 228 25953ft 397kts
03-Jan-19 16:27 35.066926 -116.103065 228 27535ft 406kts
03-Jan-19 16:28 34.987120 -116.203240 228 28240ft 424kts
03-Jan-19 16:29 34.902440 -116.309239 228 28220ft 449kts
03-Jan-19 16:30 34.824363 -116.408018 228 28217ft 448kts
03-Jan-19 16:31 34.739239 -116.516326 228 28217ft 447kts
03-Jan-19 16:32 34.649924 -116.617969 220 28210ft 442kts
03-Jan-19 16:33 34.563546 -116.701608 221 26412ft 411kts
03-Jan-19 16:34 34.480390 -116.785938 226 24255ft 388kts
03-Jan-19 16:36 34.404153 -116.875579 226 21901ft 375kts
03-Jan-19 16:37 34.330642 -116.960695 226 19503ft 359kts
03-Jan-19 16:38 34.259075 -117.039779 216 17116ft 348kts
03-Jan-19 16:39 34.178370 -117.097781 213 15182ft 342kts
03-Jan-19 16:40 34.093750 -117.144196 206 13493ft 331kts
03-Jan-19 16:41 34.010401 -117.189286 211 12039ft 330kts
03-Jan-19 16:42 33.946932 -117.264839 230 10631ft 313kts
03-Jan-19 16:43 33.894847 -117.338723 230 9380ft 274kts
03-Jan-19 16:44 33.847478 -117.405746 230 8473ft 257kts
03-Jan-19 16:45 33.808361 -117.473095 249 7782ft 246kts
03-Jan-19 16:46 33.793945 -117.551542 271 7645ft 244kts
03-Jan-19 16:47 33.796093 -117.632808 279 7634ft 244kts
03-Jan-19 16:48 33.839890 -117.687837 321 6754ft 238kts
03-Jan-19 16:49 33.889386 -117.733683 321 6049ft 197kts
03-Jan-19 16:50 33.935332 -117.751168 47 5746ft 198kts
03-Jan-19 16:51 33.910051 -117.717396 208 4784ft 194kts
03-Jan-19 16:52 33.864391 -117.748605 209 3576ft 176kts
03-Jan-19 16:53 33.824141 -117.774488 210 2999ft 161kts
03-Jan-19 16:54 33.785040 -117.799400 210 2383ft 158kts
03-Jan-19 16:55 33.747043 -117.823558 210 1536ft 152kts
03-Jan-19 16:56 33.711828 -117.845952 209 749ft 149kts
03-Jan-19 16:57 33.676241 -117.868585 206 64ft 125kts
03-Jan-19 16:58 33.669215 -117.871667 125 64ft 1kts
03-Jan-19 16:58 33.669186 -117.871617 124 64ft 0kts
03-Jan-19 16:59 33.669123 -117.871475 113 64ft 4kts
03-Jan-19 17:00 33.670140 -117.869872 39 64ft 12kts
03-Jan-19 17:01 33.673373 -117.866973 32 64ft 13kts
03-Jan-19 17:02 33.676575 -117.864917 27 64ft 11kts
03-Jan-19 17:03 33.677049 -117.864518 104 64ft 0kts
03-Jan-19 17:04 33.676839 -117.863963 118 64ft 0kts
03-Jan-19 17:05 33.676839 -117.863963 118 64ft 0kts
03-Jan-19 17:06 33.676839 -117.863963 118 64ft 0kts
03-Jan-19 17:07 33.676839 -117.863963 118 64ft 0kts
03-Jan-19 17:08 33.676839 -117.863963 118 64ft 0kts
03-Jan-19 17:09 33.676839 -117.863963 118 64ft 0kts
03-Jan-19 17:10 33.676839 -117.863963 118 64ft 0kts
03-Jan-19 17:11 33.676839 -117.863963 118 64ft 0kts

Navigation Log

Ident Type
Flight plan parsing failed, navigation log unavailable